Promised Land, New York
Current Conditions -  °F | °C
As of 8:56 AM on Thursday 23 Oct 2014 (Local Time) from KGON Reporting Station
Broken Clouds Broken Clouds  
Wind Chill: 54°   Ceiling: 2000
Heat Index: 54°   Visibility: 10mi
Dew Point: 49°   Wind: 17mph
Humidity: 83%   Direction: 20°NNE
Pressure: 29.58"   Gusts: 22mph
Location:  40.9764°N, 72.1316°W
Report Text: KGON 231256Z 02015G19KT 10SM BKN020 12/09 A2958 RMK AO2 SLP017 T01220094
Loading
Personal Weather Stations






























Interactive Weather Map
Tropical Storm Tracking
New forecast layout! Learn more

10-Day Weather Forecast

Advertisements
Track Severe Weather on mobile